sensor_id;sensor_type;location;lat;lon;timestamp;P1;durP1;ratioP1;P2;durP2;ratioP2
43048;SDS011;28673;44.412;11.918;2023-08-12T00:01:48;5.18;;;4.00;;
43048;SDS011;28673;44.412;11.918;2023-08-12T00:04:14;6.70;;;3.83;;
43048;SDS011;28673;44.412;11.918;2023-08-12T00:06:41;4.15;;;3.08;;
43048;SDS011;28673;44.412;11.918;2023-08-12T00:09:08;6.10;;;3.20;;
43048;SDS011;28673;44.412;11.918;2023-08-12T00:11:35;4.20;;;3.25;;
43048;SDS011;28673;44.412;11.918;2023-08-12T00:14:01;5.65;;;2.90;;
43048;SDS011;28673;44.412;11.918;2023-08-12T00:16:27;4.65;;;2.85;;
43048;SDS011;28673;44.412;11.918;2023-08-12T00:18:53;6.95;;;3.25;;
43048;SDS011;28673;44.412;11.918;2023-08-12T00:21:19;8.13;;;3.35;;
43048;SDS011;28673;44.412;11.918;2023-08-12T00:23:45;6.20;;;3.55;;
43048;SDS011;28673;44.412;11.918;2023-08-12T00:26:12;4.22;;;2.72;;
43048;SDS011;28673;44.412;11.918;2023-08-12T00:28:38;4.22;;;3.03;;
43048;SDS011;28673;44.412;11.918;2023-08-12T00:31:04;7.47;;;3.15;;
43048;SDS011;28673;44.412;11.918;2023-08-12T00:33:30;3.70;;;2.60;;
43048;SDS011;28673;44.412;11.918;2023-08-12T00:35:56;3.65;;;2.75;;
43048;SDS011;28673;44.412;11.918;2023-08-12T00:38:22;3.25;;;2.70;;
43048;SDS011;28673;44.412;11.918;2023-08-12T00:40:48;6.13;;;3.58;;
43048;SDS011;28673;44.412;11.918;2023-08-12T00:43:14;3.25;;;2.80;;
43048;SDS011;28673;44.412;11.918;2023-08-12T00:45:40;5.00;;;2.83;;
43048;SDS011;28673;44.412;11.918;2023-08-12T00:48:07;7.10;;;3.67;;
43048;SDS011;28673;44.412;11.918;2023-08-12T00:50:33;7.90;;;3.67;;
43048;SDS011;28673;44.412;11.918;2023-08-12T00:53:01;3.95;;;3.50;;
43048;SDS011;28673;44.412;11.918;2023-08-12T00:55:27;5.63;;;3.97;;
43048;SDS011;28673;44.412;11.918;2023-08-12T00:57:53;4.70;;;3.58;;
43048;SDS011;28673;44.412;11.918;2023-08-12T01:00:19;6.13;;;3.65;;
43048;SDS011;28673;44.412;11.918;2023-08-12T01:02:46;4.20;;;3.00;;
43048;SDS011;28673;44.412;11.918;2023-08-12T01:05:14;4.63;;;3.20;;
43048;SDS011;28673;44.412;11.918;2023-08-12T01:07:42;7.50;;;3.38;;
43048;SDS011;28673;44.412;11.918;2023-08-12T01:10:08;5.75;;;3.40;;
43048;SDS011;28673;44.412;11.918;2023-08-12T01:15:32;6.95;;;3.33;;
43048;SDS011;28673;44.412;11.918;2023-08-12T01:17:59;7.95;;;3.20;;
43048;SDS011;28673;44.412;11.918;2023-08-12T01:20:27;4.43;;;3.60;;
43048;SDS011;28673;44.412;11.918;2023-08-12T01:23:07;7.00;;;3.63;;
43048;SDS011;28673;44.412;11.918;2023-08-12T01:25:36;4.40;;;3.30;;
43048;SDS011;28673;44.412;11.918;2023-08-12T01:28:02;8.98;;;3.00;;
43048;SDS011;28673;44.412;11.918;2023-08-12T01:30:28;4.32;;;3.03;;
43048;SDS011;28673;44.412;11.918;2023-08-12T01:33:12;4.95;;;3.15;;
43048;SDS011;28673;44.412;11.918;2023-08-12T01:35:58;7.32;;;3.38;;
43048;SDS011;28673;44.412;11.918;2023-08-12T01:38:33;5.30;;;3.85;;
43048;SDS011;28673;44.412;11.918;2023-08-12T01:41:00;4.22;;;3.40;;
43048;SDS011;28673;44.412;11.918;2023-08-12T01:43:27;6.30;;;3.40;;
43048;SDS011;28673;44.412;11.918;2023-08-12T01:45:53;5.35;;;3.25;;
43048;SDS011;28673;44.412;11.918;2023-08-12T01:48:19;4.70;;;3.10;;
43048;SDS011;28673;44.412;11.918;2023-08-12T01:50:48;4.07;;;3.17;;
43048;SDS011;28673;44.412;11.918;2023-08-12T01:53:14;4.80;;;3.10;;
43048;SDS011;28673;44.412;11.918;2023-08-12T01:55:42;4.90;;;3.45;;
43048;SDS011;28673;44.412;11.918;2023-08-12T01:58:09;3.78;;;3.13;;
43048;SDS011;28673;44.412;11.918;2023-08-12T02:00:35;4.25;;;2.97;;
43048;SDS011;28673;44.412;11.918;2023-08-12T02:03:01;7.55;;;3.38;;
43048;SDS011;28673;44.412;11.918;2023-08-12T02:05:27;8.90;;;3.63;;
43048;SDS011;28673;44.412;11.918;2023-08-12T02:07:52;9.32;;;3.25;;
43048;SDS011;28673;44.412;11.918;2023-08-12T02:10:18;4.20;;;3.22;;
43048;SDS011;28673;44.412;11.918;2023-08-12T02:12:44;7.35;;;3.25;;
43048;SDS011;28673;44.412;11.918;2023-08-12T02:15:10;7.38;;;4.05;;
43048;SDS011;28673;44.412;11.918;2023-08-12T02:17:36;9.20;;;4.18;;
43048;SDS011;28673;44.412;11.918;2023-08-12T02:20:02;4.40;;;3.55;;
43048;SDS011;28673;44.412;11.918;2023-08-12T02:22:29;6.43;;;4.35;;
43048;SDS011;28673;44.412;11.918;2023-08-12T02:24:55;5.15;;;4.13;;
43048;SDS011;28673;44.412;11.918;2023-08-12T02:27:21;6.57;;;4.10;;
43048;SDS011;28673;44.412;11.918;2023-08-12T02:29:47;8.98;;;4.18;;
43048;SDS011;28673;44.412;11.918;2023-08-12T02:32:12;9.73;;;4.30;;
43048;SDS011;28673;44.412;11.918;2023-08-12T02:34:38;6.60;;;4.28;;
43048;SDS011;28673;44.412;11.918;2023-08-12T02:37:04;5.68;;;3.92;;
43048;SDS011;28673;44.412;11.918;2023-08-12T02:39:30;6.15;;;3.80;;
43048;SDS011;28673;44.412;11.918;2023-08-12T02:41:56;4.10;;;3.38;;
43048;SDS011;28673;44.412;11.918;2023-08-12T02:44:21;4.68;;;3.80;;
43048;SDS011;28673;44.412;11.918;2023-08-12T02:46:47;4.88;;;3.70;;
43048;SDS011;28673;44.412;11.918;2023-08-12T02:49:13;5.15;;;4.03;;
43048;SDS011;28673;44.412;11.918;2023-08-12T02:51:39;4.93;;;4.05;;
43048;SDS011;28673;44.412;11.918;2023-08-12T02:54:05;6.03;;;3.88;;
43048;SDS011;28673;44.412;11.918;2023-08-12T02:56:31;7.25;;;3.60;;
43048;SDS011;28673;44.412;11.918;2023-08-12T02:58:56;4.75;;;4.20;;
43048;SDS011;28673;44.412;11.918;2023-08-12T03:01:22;5.40;;;3.92;;
43048;SDS011;28673;44.412;11.918;2023-08-12T03:03:49;5.40;;;3.20;;
43048;SDS011;28673;44.412;11.918;2023-08-12T03:06:15;5.63;;;4.30;;
43048;SDS011;28673;44.412;11.918;2023-08-12T03:08:41;4.50;;;3.28;;
43048;SDS011;28673;44.412;11.918;2023-08-12T03:11:08;4.00;;;3.30;;
43048;SDS011;28673;44.412;11.918;2023-08-12T03:13:33;5.03;;;3.70;;
43048;SDS011;28673;44.412;11.918;2023-08-12T03:16:00;8.18;;;4.03;;
43048;SDS011;28673;44.412;11.918;2023-08-12T03:18:27;6.05;;;3.67;;
43048;SDS011;28673;44.412;11.918;2023-08-12T03:20:54;4.97;;;3.92;;
43048;SDS011;28673;44.412;11.918;2023-08-12T03:23:22;8.27;;;3.85;;
43048;SDS011;28673;44.412;11.918;2023-08-12T03:25:48;7.00;;;4.03;;
43048;SDS011;28673;44.412;11.918;2023-08-12T03:28:15;8.95;;;3.67;;
43048;SDS011;28673;44.412;11.918;2023-08-12T03:30:42;6.43;;;3.38;;
43048;SDS011;28673;44.412;11.918;2023-08-12T03:33:08;7.55;;;3.30;;
43048;SDS011;28673;44.412;11.918;2023-08-12T03:35:35;4.47;;;3.28;;
43048;SDS011;28673;44.412;11.918;2023-08-12T03:38:01;5.07;;;3.70;;
43048;SDS011;28673;44.412;11.918;2023-08-12T03:40:27;5.20;;;3.50;;
43048;SDS011;28673;44.412;11.918;2023-08-12T03:42:54;4.65;;;3.42;;
43048;SDS011;28673;44.412;11.918;2023-08-12T03:45:23;7.47;;;3.10;;
43048;SDS011;28673;44.412;11.918;2023-08-12T03:47:49;4.82;;;2.80;;
43048;SDS011;28673;44.412;11.918;2023-08-12T03:50:14;7.53;;;3.30;;
43048;SDS011;28673;44.412;11.918;2023-08-12T03:52:40;8.82;;;3.10;;
43048;SDS011;28673;44.412;11.918;2023-08-12T03:55:07;4.85;;;3.15;;
43048;SDS011;28673;44.412;11.918;2023-08-12T03:57:34;6.60;;;3.72;;
43048;SDS011;28673;44.412;11.918;2023-08-12T04:00:00;3.92;;;3.28;;
43048;SDS011;28673;44.412;11.918;2023-08-12T04:02:27;4.28;;;3.42;;
43048;SDS011;28673;44.412;11.918;2023-08-12T04:04:52;5.03;;;2.90;;
43048;SDS011;28673;44.412;11.918;2023-08-12T04:07:18;3.50;;;3.20;;
43048;SDS011;28673;44.412;11.918;2023-08-12T04:09:44;6.10;;;3.08;;
43048;SDS011;28673;44.412;11.918;2023-08-12T04:12:10;8.55;;;3.00;;
43048;SDS011;28673;44.412;11.918;2023-08-12T04:14:36;3.03;;;2.70;;
43048;SDS011;28673;44.412;11.918;2023-08-12T04:17:01;4.22;;;3.30;;
43048;SDS011;28673;44.412;11.918;2023-08-12T04:19:27;3.88;;;2.80;;
43048;SDS011;28673;44.412;11.918;2023-08-12T04:21:53;4.05;;;3.17;;
43048;SDS011;28673;44.412;11.918;2023-08-12T04:24:19;5.40;;;3.35;;
43048;SDS011;28673;44.412;11.918;2023-08-12T04:26:46;4.32;;;3.47;;
43048;SDS011;28673;44.412;11.918;2023-08-12T04:29:12;5.15;;;3.78;;
43048;SDS011;28673;44.412;11.918;2023-08-12T04:31:40;3.53;;;3.05;;
43048;SDS011;28673;44.412;11.918;2023-08-12T04:34:06;5.40;;;3.35;;
43048;SDS011;28673;44.412;11.918;2023-08-12T04:36:32;4.82;;;3.40;;
43048;SDS011;28673;44.412;11.918;2023-08-12T04:39:00;4.35;;;3.13;;
43048;SDS011;28673;44.412;11.918;2023-08-12T04:41:27;5.15;;;3.08;;
43048;SDS011;28673;44.412;11.918;2023-08-12T04:43:54;4.82;;;3.25;;
43048;SDS011;28673;44.412;11.918;2023-08-12T04:46:24;4.65;;;2.78;;
43048;SDS011;28673;44.412;11.918;2023-08-12T04:48:50;4.00;;;3.10;;
43048;SDS011;28673;44.412;11.918;2023-08-12T04:51:17;4.72;;;3.90;;
43048;SDS011;28673;44.412;11.918;2023-08-12T04:53:42;6.10;;;3.70;;
43048;SDS011;28673;44.412;11.918;2023-08-12T04:56:09;3.88;;;3.03;;
43048;SDS011;28673;44.412;11.918;2023-08-12T04:58:34;4.28;;;3.42;;
43048;SDS011;28673;44.412;11.918;2023-08-12T05:01:01;7.30;;;3.50;;
43048;SDS011;28673;44.412;11.918;2023-08-12T05:03:29;4.30;;;3.65;;
43048;SDS011;28673;44.412;11.918;2023-08-12T05:05:55;6.82;;;4.13;;
43048;SDS011;28673;44.412;11.918;2023-08-12T05:08:25;7.60;;;6.15;;
43048;SDS011;28673;44.412;11.918;2023-08-12T05:10:51;8.77;;;6.13;;
43048;SDS011;28673;44.412;11.918;2023-08-12T05:13:17;11.43;;;6.40;;
43048;SDS011;28673;44.412;11.918;2023-08-12T05:15:46;12.45;;;7.53;;
43048;SDS011;28673;44.412;11.918;2023-08-12T05:18:16;13.57;;;8.43;;
43048;SDS011;28673;44.412;11.918;2023-08-12T05:20:42;11.30;;;7.25;;
43048;SDS011;28673;44.412;11.918;2023-08-12T05:23:08;10.43;;;6.60;;
43048;SDS011;28673;44.412;11.918;2023-08-12T05:25:34;9.90;;;5.70;;
43048;SDS011;28673;44.412;11.918;2023-08-12T05:28:00;9.05;;;5.45;;
43048;SDS011;28673;44.412;11.918;2023-08-12T05:30:26;7.43;;;4.97;;
43048;SDS011;28673;44.412;11.918;2023-08-12T05:32:52;6.20;;;5.00;;
43048;SDS011;28673;44.412;11.918;2023-08-12T05:35:18;9.75;;;4.53;;
43048;SDS011;28673;44.412;11.918;2023-08-12T05:37:43;6.03;;;4.03;;
43048;SDS011;28673;44.412;11.918;2023-08-12T05:40:09;5.30;;;4.25;;
43048;SDS011;28673;44.412;11.918;2023-08-12T05:42:36;10.25;;;4.85;;
43048;SDS011;28673;44.412;11.918;2023-08-12T05:45:02;5.82;;;4.57;;
43048;SDS011;28673;44.412;11.918;2023-08-12T05:47:29;5.25;;;4.22;;
43048;SDS011;28673;44.412;11.918;2023-08-12T05:49:55;6.70;;;4.90;;
43048;SDS011;28673;44.412;11.918;2023-08-12T05:52:21;5.65;;;4.80;;
43048;SDS011;28673;44.412;11.918;2023-08-12T05:54:47;5.65;;;4.57;;
43048;SDS011;28673;44.412;11.918;2023-08-12T05:57:12;6.57;;;4.32;;
43048;SDS011;28673;44.412;11.918;2023-08-12T05:59:40;6.05;;;4.68;;
43048;SDS011;28673;44.412;11.918;2023-08-12T06:02:06;4.93;;;4.43;;
43048;SDS011;28673;44.412;11.918;2023-08-12T06:04:32;7.05;;;4.82;;
43048;SDS011;28673;44.412;11.918;2023-08-12T06:06:58;5.10;;;4.45;;
43048;SDS011;28673;44.412;11.918;2023-08-12T06:09:24;4.50;;;4.10;;
43048;SDS011;28673;44.412;11.918;2023-08-12T06:11:49;4.80;;;4.32;;
43048;SDS011;28673;44.412;11.918;2023-08-12T06:14:15;6.35;;;4.03;;
43048;SDS011;28673;44.412;11.918;2023-08-12T06:16:41;5.22;;;3.33;;
43048;SDS011;28673;44.412;11.918;2023-08-12T06:19:07;4.43;;;3.25;;
43048;SDS011;28673;44.412;11.918;2023-08-12T06:21:33;7.50;;;4.18;;
43048;SDS011;28673;44.412;11.918;2023-08-12T06:23:59;4.97;;;3.58;;
43048;SDS011;28673;44.412;11.918;2023-08-12T06:26:24;5.57;;;4.53;;
43048;SDS011;28673;44.412;11.918;2023-08-12T06:28:50;5.22;;;3.88;;
43048;SDS011;28673;44.412;11.918;2023-08-12T06:31:16;5.45;;;3.40;;
43048;SDS011;28673;44.412;11.918;2023-08-12T06:33:42;6.68;;;4.47;;
43048;SDS011;28673;44.412;11.918;2023-08-12T06:36:08;8.25;;;4.32;;
43048;SDS011;28673;44.412;11.918;2023-08-12T06:38:34;4.25;;;3.42;;
43048;SDS011;28673;44.412;11.918;2023-08-12T06:40:59;6.68;;;3.75;;
43048;SDS011;28673;44.412;11.918;2023-08-12T06:43:25;7.10;;;3.67;;
43048;SDS011;28673;44.412;11.918;2023-08-12T06:45:51;4.50;;;3.70;;
43048;SDS011;28673;44.412;11.918;2023-08-12T06:48:17;4.38;;;3.92;;
43048;SDS011;28673;44.412;11.918;2023-08-12T06:50:42;4.55;;;3.40;;
43048;SDS011;28673;44.412;11.918;2023-08-12T06:53:08;6.10;;;3.92;;
43048;SDS011;28673;44.412;11.918;2023-08-12T06:55:34;4.80;;;3.95;;
43048;SDS011;28673;44.412;11.918;2023-08-12T06:58:00;4.18;;;3.45;;
43048;SDS011;28673;44.412;11.918;2023-08-12T07:00:26;9.43;;;3.15;;
43048;SDS011;28673;44.412;11.918;2023-08-12T07:02:52;4.75;;;3.00;;
43048;SDS011;28673;44.412;11.918;2023-08-12T07:05:18;3.42;;;3.13;;
43048;SDS011;28673;44.412;11.918;2023-08-12T07:07:44;7.45;;;3.97;;
43048;SDS011;28673;44.412;11.918;2023-08-12T07:10:10;9.32;;;3.65;;
43048;SDS011;28673;44.412;11.918;2023-08-12T07:12:37;3.83;;;3.22;;
43048;SDS011;28673;44.412;11.918;2023-08-12T07:15:03;7.93;;;3.17;;
43048;SDS011;28673;44.412;11.918;2023-08-12T07:17:29;4.10;;;2.38;;
43048;SDS011;28673;44.412;11.918;2023-08-12T07:19:55;3.58;;;2.83;;
43048;SDS011;28673;44.412;11.918;2023-08-12T07:22:21;4.40;;;3.28;;
43048;SDS011;28673;44.412;11.918;2023-08-12T07:24:47;9.43;;;2.60;;
43048;SDS011;28673;44.412;11.918;2023-08-12T07:27:13;3.33;;;2.60;;
43048;SDS011;28673;44.412;11.918;2023-08-12T07:29:39;3.92;;;2.72;;
43048;SDS011;28673;44.412;11.918;2023-08-12T07:32:05;3.28;;;2.65;;
43048;SDS011;28673;44.412;11.918;2023-08-12T07:34:31;3.90;;;2.55;;
43048;SDS011;28673;44.412;11.918;2023-08-12T07:36:56;3.55;;;2.60;;
43048;SDS011;28673;44.412;11.918;2023-08-12T07:39:22;3.13;;;2.47;;
43048;SDS011;28673;44.412;11.918;2023-08-12T07:41:48;3.25;;;2.50;;
43048;SDS011;28673;44.412;11.918;2023-08-12T07:44:14;5.10;;;2.88;;
43048;SDS011;28673;44.412;11.918;2023-08-12T07:46:40;5.68;;;2.45;;
43048;SDS011;28673;44.412;11.918;2023-08-12T07:49:06;2.33;;;1.85;;
43048;SDS011;28673;44.412;11.918;2023-08-12T07:51:32;3.05;;;1.95;;
43048;SDS011;28673;44.412;11.918;2023-08-12T07:53:58;3.45;;;2.35;;
43048;SDS011;28673;44.412;11.918;2023-08-12T07:56:24;3.15;;;2.17;;
43048;SDS011;28673;44.412;11.918;2023-08-12T07:58:50;3.20;;;2.90;;
43048;SDS011;28673;44.412;11.918;2023-08-12T08:01:16;5.43;;;2.47;;
43048;SDS011;28673;44.412;11.918;2023-08-12T08:03:42;6.50;;;2.28;;
43048;SDS011;28673;44.412;11.918;2023-08-12T08:06:07;5.25;;;2.15;;
43048;SDS011;28673;44.412;11.918;2023-08-12T08:08:33;3.05;;;2.13;;
43048;SDS011;28673;44.412;11.918;2023-08-12T08:10:59;2.42;;;2.03;;
43048;SDS011;28673;44.412;11.918;2023-08-12T08:13:25;3.50;;;2.50;;
43048;SDS011;28673;44.412;11.918;2023-08-12T08:15:51;3.33;;;2.33;;
43048;SDS011;28673;44.412;11.918;2023-08-12T08:18:17;9.23;;;2.40;;
43048;SDS011;28673;44.412;11.918;2023-08-12T08:20:43;4.03;;;2.50;;
43048;SDS011;28673;44.412;11.918;2023-08-12T08:23:09;6.30;;;2.40;;
43048;SDS011;28673;44.412;11.918;2023-08-12T08:25:35;8.10;;;2.40;;
43048;SDS011;28673;44.412;11.918;2023-08-12T08:28:01;5.88;;;2.53;;
43048;SDS011;28673;44.412;11.918;2023-08-12T08:30:28;5.95;;;2.10;;
43048;SDS011;28673;44.412;11.918;2023-08-12T08:32:54;2.58;;;2.28;;
43048;SDS011;28673;44.412;11.918;2023-08-12T08:35:20;4.18;;;2.20;;
43048;SDS011;28673;44.412;11.918;2023-08-12T08:37:46;2.08;;;1.85;;
43048;SDS011;28673;44.412;11.918;2023-08-12T08:40:12;3.33;;;2.35;;
43048;SDS011;28673;44.412;11.918;2023-08-12T08:42:39;2.47;;;1.98;;
43048;SDS011;28673;44.412;11.918;2023-08-12T08:45:11;3.00;;;2.50;;
43048;SDS011;28673;44.412;11.918;2023-08-12T08:47:38;5.88;;;1.98;;
43048;SDS011;28673;44.412;11.918;2023-08-12T08:50:06;3.40;;;2.25;;
43048;SDS011;28673;44.412;11.918;2023-08-12T08:52:34;3.00;;;2.40;;
43048;SDS011;28673;44.412;11.918;2023-08-12T08:55:02;3.95;;;2.40;;
43048;SDS011;28673;44.412;11.918;2023-08-12T08:57:29;2.97;;;2.25;;
43048;SDS011;28673;44.412;11.918;2023-08-12T08:59:56;7.68;;;2.42;;
43048;SDS011;28673;44.412;11.918;2023-08-12T09:02:22;2.38;;;2.03;;
43048;SDS011;28673;44.412;11.918;2023-08-12T09:04:49;1.92;;;1.73;;
43048;SDS011;28673;44.412;11.918;2023-08-12T09:07:16;4.07;;;1.80;;
43048;SDS011;28673;44.412;11.918;2023-08-12T09:09:45;2.53;;;1.83;;
43048;SDS011;28673;44.412;11.918;2023-08-12T09:12:14;2.40;;;1.63;;
43048;SDS011;28673;44.412;11.918;2023-08-12T09:14:42;1.70;;;1.60;;
43048;SDS011;28673;44.412;11.918;2023-08-12T09:17:08;2.78;;;2.45;;
43048;SDS011;28673;44.412;11.918;2023-08-12T09:19:36;2.47;;;2.03;;
43048;SDS011;28673;44.412;11.918;2023-08-12T09:22:05;2.33;;;1.73;;
43048;SDS011;28673;44.412;11.918;2023-08-12T09:24:34;4.85;;;1.73;;
43048;SDS011;28673;44.412;11.918;2023-08-12T09:27:00;2.55;;;1.95;;
43048;SDS011;28673;44.412;11.918;2023-08-12T09:29:33;2.88;;;2.25;;
43048;SDS011;28673;44.412;11.918;2023-08-12T09:32:11;2.78;;;1.88;;
43048;SDS011;28673;44.412;11.918;2023-08-12T09:34:47;4.75;;;1.58;;
43048;SDS011;28673;44.412;11.918;2023-08-12T09:37:17;2.78;;;1.58;;
43048;SDS011;28673;44.412;11.918;2023-08-12T09:39:46;3.28;;;2.17;;
43048;SDS011;28673;44.412;11.918;2023-08-12T09:42:16;2.42;;;1.25;;
43048;SDS011;28673;44.412;11.918;2023-08-12T09:44:43;2.38;;;1.67;;
43048;SDS011;28673;44.412;11.918;2023-08-12T09:47:10;2.08;;;1.50;;
43048;SDS011;28673;44.412;11.918;2023-08-12T09:49:37;1.63;;;1.17;;
43048;SDS011;28673;44.412;11.918;2023-08-12T09:52:04;2.65;;;1.50;;
43048;SDS011;28673;44.412;11.918;2023-08-12T09:54:33;2.83;;;1.90;;
43048;SDS011;28673;44.412;11.918;2023-08-12T09:57:03;2.00;;;1.42;;
43048;SDS011;28673;44.412;11.918;2023-08-12T09:59:32;1.77;;;1.45;;
43048;SDS011;28673;44.412;11.918;2023-08-12T10:02:00;2.38;;;1.55;;
43048;SDS011;28673;44.412;11.918;2023-08-12T10:04:33;1.88;;;1.35;;
43048;SDS011;28673;44.412;11.918;2023-08-12T10:07:10;1.85;;;1.60;;
43048;SDS011;28673;44.412;11.918;2023-08-12T10:09:39;1.98;;;1.40;;
43048;SDS011;28673;44.412;11.918;2023-08-12T10:12:06;2.13;;;1.42;;
43048;SDS011;28673;44.412;11.918;2023-08-12T10:14:33;1.65;;;1.20;;
43048;SDS011;28673;44.412;11.918;2023-08-12T10:16:59;4.65;;;1.50;;
43048;SDS011;28673;44.412;11.918;2023-08-12T10:19:26;1.65;;;1.52;;
43048;SDS011;28673;44.412;11.918;2023-08-12T10:21:56;3.92;;;1.55;;
43048;SDS011;28673;44.412;11.918;2023-08-12T10:24:24;1.60;;;1.30;;
43048;SDS011;28673;44.412;11.918;2023-08-12T10:26:52;2.38;;;1.67;;
43048;SDS011;28673;44.412;11.918;2023-08-12T10:29:19;2.78;;;1.83;;
43048;SDS011;28673;44.412;11.918;2023-08-12T10:31:46;2.75;;;1.30;;
43048;SDS011;28673;44.412;11.918;2023-08-12T10:34:22;2.75;;;1.70;;
43048;SDS011;28673;44.412;11.918;2023-08-12T10:36:55;2.78;;;1.25;;
43048;SDS011;28673;44.412;11.918;2023-08-12T10:39:25;4.22;;;1.70;;
43048;SDS011;28673;44.412;11.918;2023-08-12T10:41:53;2.65;;;2.05;;
43048;SDS011;28673;44.412;11.918;2023-08-12T10:44:21;4.60;;;1.90;;
43048;SDS011;28673;44.412;11.918;2023-08-12T10:46:51;1.50;;;1.30;;
43048;SDS011;28673;44.412;11.918;2023-08-12T10:49:19;2.72;;;1.77;;
43048;SDS011;28673;44.412;11.918;2023-08-12T10:54:22;2.20;;;1.63;;
43048;SDS011;28673;44.412;11.918;2023-08-12T11:02:15;2.05;;;1.50;;
43048;SDS011;28673;44.412;11.918;2023-08-12T11:04:55;2.78;;;1.75;;
43048;SDS011;28673;44.412;11.918;2023-08-12T11:12:41;1.80;;;1.55;;
43048;SDS011;28673;44.412;11.918;2023-08-12T11:15:12;6.30;;;1.77;;
43048;SDS011;28673;44.412;11.918;2023-08-12T11:17:40;2.05;;;1.50;;
43048;SDS011;28673;44.412;11.918;2023-08-12T11:20:11;1.75;;;1.40;;
43048;SDS011;28673;44.412;11.918;2023-08-12T11:22:43;3.22;;;1.85;;
43048;SDS011;28673;44.412;11.918;2023-08-12T11:25:11;2.47;;;1.70;;
43048;SDS011;28673;44.412;11.918;2023-08-12T11:27:42;2.30;;;1.55;;
43048;SDS011;28673;44.412;11.918;2023-08-12T11:30:09;2.30;;;1.63;;
43048;SDS011;28673;44.412;11.918;2023-08-12T11:32:38;2.40;;;1.92;;
43048;SDS011;28673;44.412;11.918;2023-08-12T11:35:05;1.95;;;1.38;;
43048;SDS011;28673;44.412;11.918;2023-08-12T11:37:32;9.77;;;1.73;;
43048;SDS011;28673;44.412;11.918;2023-08-12T11:40:00;3.85;;;1.50;;
43048;SDS011;28673;44.412;11.918;2023-08-12T11:42:28;3.25;;;1.92;;
43048;SDS011;28673;44.412;11.918;2023-08-12T11:44:54;4.72;;;1.63;;
43048;SDS011;28673;44.412;11.918;2023-08-12T11:47:22;2.92;;;1.30;;
43048;SDS011;28673;44.412;11.918;2023-08-12T11:49:51;1.92;;;1.60;;
43048;SDS011;28673;44.412;11.918;2023-08-12T11:54:45;4.97;;;1.55;;
43048;SDS011;28673;44.412;11.918;2023-08-12T11:57:13;5.43;;;1.27;;
43048;SDS011;28673;44.412;11.918;2023-08-12T11:59:40;1.63;;;1.42;;
43048;SDS011;28673;44.412;11.918;2023-08-12T12:02:07;1.52;;;1.05;;
43048;SDS011;28673;44.412;11.918;2023-08-12T12:04:33;1.90;;;1.42;;
43048;SDS011;28673;44.412;11.918;2023-08-12T12:07:00;2.35;;;1.40;;
43048;SDS011;28673;44.412;11.918;2023-08-12T12:09:31;2.38;;;1.25;;
43048;SDS011;28673;44.412;11.918;2023-08-12T12:11:58;2.88;;;1.40;;
43048;SDS011;28673;44.412;11.918;2023-08-12T12:14:25;2.00;;;1.52;;
43048;SDS011;28673;44.412;11.918;2023-08-12T12:16:51;1.80;;;1.40;;
43048;SDS011;28673;44.412;11.918;2023-08-12T12:19:21;2.85;;;1.50;;
43048;SDS011;28673;44.412;11.918;2023-08-12T12:21:49;2.20;;;1.27;;
43048;SDS011;28673;44.412;11.918;2023-08-12T12:24:17;2.08;;;1.45;;
43048;SDS011;28673;44.412;11.918;2023-08-12T12:26:44;1.65;;;1.30;;
43048;SDS011;28673;44.412;11.918;2023-08-12T12:29:12;1.50;;;1.40;;
43048;SDS011;28673;44.412;11.918;2023-08-12T12:31:39;1.45;;;1.23;;
43048;SDS011;28673;44.412;11.918;2023-08-12T12:34:07;3.47;;;1.60;;
43048;SDS011;28673;44.412;11.918;2023-08-12T12:36:36;2.58;;;1.70;;
43048;SDS011;28673;44.412;11.918;2023-08-12T12:39:03;1.63;;;1.42;;
43048;SDS011;28673;44.412;11.918;2023-08-12T12:41:29;2.80;;;1.35;;
43048;SDS011;28673;44.412;11.918;2023-08-12T12:43:56;4.50;;;1.35;;
43048;SDS011;28673;44.412;11.918;2023-08-12T12:46:22;1.65;;;1.27;;
43048;SDS011;28673;44.412;11.918;2023-08-12T12:48:48;1.33;;;1.17;;
43048;SDS011;28673;44.412;11.918;2023-08-12T12:51:14;4.07;;;1.48;;
43048;SDS011;28673;44.412;11.918;2023-08-12T12:53:40;8.48;;;1.60;;
43048;SDS011;28673;44.412;11.918;2023-08-12T12:56:06;1.95;;;1.30;;
43048;SDS011;28673;44.412;11.918;2023-08-12T12:58:34;1.65;;;1.55;;
43048;SDS011;28673;44.412;11.918;2023-08-12T13:01:03;4.57;;;1.70;;
43048;SDS011;28673;44.412;11.918;2023-08-12T13:03:30;2.47;;;1.40;;
43048;SDS011;28673;44.412;11.918;2023-08-12T13:05:57;1.60;;;1.50;;
43048;SDS011;28673;44.412;11.918;2023-08-12T13:08:24;2.05;;;1.48;;
43048;SDS011;28673;44.412;11.918;2023-08-12T13:10:51;2.55;;;1.50;;
43048;SDS011;28673;44.412;11.918;2023-08-12T13:13:18;1.98;;;1.52;;
43048;SDS011;28673;44.412;11.918;2023-08-12T13:15:45;2.17;;;1.60;;
43048;SDS011;28673;44.412;11.918;2023-08-12T13:18:11;2.03;;;1.45;;
43048;SDS011;28673;44.412;11.918;2023-08-12T13:20:37;3.03;;;1.38;;
43048;SDS011;28673;44.412;11.918;2023-08-12T13:23:03;2.10;;;1.65;;
43048;SDS011;28673;44.412;11.918;2023-08-12T13:25:30;2.00;;;1.52;;
43048;SDS011;28673;44.412;11.918;2023-08-12T13:27:59;4.28;;;1.55;;
43048;SDS011;28673;44.412;11.918;2023-08-12T13:30:27;2.30;;;1.50;;
43048;SDS011;28673;44.412;11.918;2023-08-12T13:32:53;2.55;;;1.65;;
43048;SDS011;28673;44.412;11.918;2023-08-12T13:35:20;2.22;;;1.30;;
43048;SDS011;28673;44.412;11.918;2023-08-12T13:37:46;1.73;;;1.35;;
43048;SDS011;28673;44.412;11.918;2023-08-12T13:40:12;4.40;;;1.20;;
43048;SDS011;28673;44.412;11.918;2023-08-12T13:42:40;1.85;;;1.35;;
43048;SDS011;28673;44.412;11.918;2023-08-12T13:45:11;5.00;;;1.13;;
43048;SDS011;28673;44.412;11.918;2023-08-12T13:47:38;2.20;;;1.90;;
43048;SDS011;28673;44.412;11.918;2023-08-12T13:50:04;3.47;;;1.88;;
43048;SDS011;28673;44.412;11.918;2023-08-12T13:52:30;3.95;;;1.30;;
43048;SDS011;28673;44.412;11.918;2023-08-12T13:54:56;1.40;;;1.10;;
43048;SDS011;28673;44.412;11.918;2023-08-12T13:57:22;2.45;;;1.60;;
43048;SDS011;28673;44.412;11.918;2023-08-12T13:59:50;2.05;;;1.45;;
43048;SDS011;28673;44.412;11.918;2023-08-12T14:02:15;1.85;;;1.45;;
43048;SDS011;28673;44.412;11.918;2023-08-12T14:04:41;2.45;;;1.77;;
43048;SDS011;28673;44.412;11.918;2023-08-12T14:07:07;1.30;;;1.20;;
43048;SDS011;28673;44.412;11.918;2023-08-12T14:09:33;2.47;;;1.63;;
43048;SDS011;28673;44.412;11.918;2023-08-12T14:11:59;1.45;;;1.35;;
43048;SDS011;28673;44.412;11.918;2023-08-12T14:14:26;1.65;;;1.40;;
43048;SDS011;28673;44.412;11.918;2023-08-12T14:16:55;3.22;;;1.88;;
43048;SDS011;28673;44.412;11.918;2023-08-12T14:19:21;4.45;;;2.53;;
43048;SDS011;28673;44.412;11.918;2023-08-12T14:21:47;1.63;;;1.33;;
43048;SDS011;28673;44.412;11.918;2023-08-12T14:24:13;1.52;;;1.30;;
43048;SDS011;28673;44.412;11.918;2023-08-12T14:26:39;1.50;;;1.10;;
43048;SDS011;28673;44.412;11.918;2023-08-12T14:29:05;4.28;;;1.30;;
43048;SDS011;28673;44.412;11.918;2023-08-12T14:31:31;2.22;;;1.48;;
43048;SDS011;28673;44.412;11.918;2023-08-12T14:33:58;2.10;;;1.60;;
43048;SDS011;28673;44.412;11.918;2023-08-12T14:36:24;2.47;;;1.35;;
43048;SDS011;28673;44.412;11.918;2023-08-12T14:38:50;1.88;;;1.20;;
43048;SDS011;28673;44.412;11.918;2023-08-12T14:41:17;3.05;;;1.73;;
43048;SDS011;28673;44.412;11.918;2023-08-12T14:43:43;5.38;;;1.60;;
43048;SDS011;28673;44.412;11.918;2023-08-12T14:46:09;3.15;;;1.48;;
43048;SDS011;28673;44.412;11.918;2023-08-12T14:48:35;1.73;;;1.33;;
43048;SDS011;28673;44.412;11.918;2023-08-12T14:51:01;3.95;;;1.50;;